Time;durP1;ratioP1;P1;durP2;ratioP2;P2;SDS_P1;SDS_P2;PMS_P1;PMS_P2;Temp;Humidity;BMP_temperature;BMP_pressure;BME280_temperature;BME280_humidity;BME280_pressure;Samples;Min_cycle;Max_cycle;Signal;HPM_P1;HPM_P2
2021/05/06 00:01:06;;;;;;;7.03;6.33;;;;;;;9.76;52.05;100814.41;4932785;28;119056;-73
2021/05/06 00:09:13;;;;;;;9.27;6.68;;;;;;;9.73;52.61;100806.59;4922159;28;123372;-72
2021/05/06 00:14:29;;;;;;;7.38;6.00;;;;;;;9.74;52.38;100789.81;4905376;28;117431;-73
2021/05/06 00:33:12;;;;;;;6.32;5.03;;;;;;;9.75;52.83;100754.50;4914003;28;118572;-72
2021/05/06 00:35:39;;;;;;;7.35;5.60;;;;;;;9.75;53.12;100754.50;4917780;28;120374;-73
2021/05/06 00:38:11;;;;;;;6.78;5.90;;;;;;;9.77;52.99;100757.94;4916024;28;123796;-72
2021/05/06 00:43:53;;;;;;;7.72;5.80;;;;;;;9.78;52.98;100754.38;4914422;28;120728;-73
2021/05/06 01:07:32;;;;;;;7.85;6.55;;;;;;;9.83;53.27;100725.06;4912886;28;118949;-72
2021/05/06 01:10:11;;;;;;;6.70;5.88;;;;;;;9.83;53.30;100725.06;4911651;28;124204;-73
2021/05/06 01:12:38;;;;;;;12.63;6.15;;;;;;;9.84;53.09;100732.09;4915452;28;124380;-73
2021/05/06 01:15:06;;;;;;;9.10;6.10;;;;;;;9.85;53.59;100728.50;4902538;28;117762;-73
2021/05/06 01:17:32;;;;;;;8.23;6.45;;;;;;;9.85;53.48;100718.81;4917881;28;118329;-73
2021/05/06 01:19:59;;;;;;;7.65;5.65;;;;;;;9.85;53.62;100724.09;4910356;28;123477;-72
2021/05/06 01:22:26;;;;;;;7.68;5.93;;;;;;;9.85;53.88;100718.81;4909494;28;123483;-73
2021/05/06 01:24:56;;;;;;;8.48;6.60;;;;;;;9.84;54.04;100717.06;4909831;28;118654;-72
2021/05/06 01:27:50;;;;;;;9.00;7.30;;;;;;;9.83;53.97;100720.66;4896000;28;119000;-72
2021/05/06 01:35:31;;;;;;;8.32;7.05;;;;;;;9.80;54.25;100704.91;4912426;28;118790;-72
2021/05/06 01:40:54;;;;;;;7.85;7.05;;;;;;;9.81;54.22;100698.69;4929045;28;122984;-73
2021/05/06 01:43:39;;;;;;;9.60;7.38;;;;;;;9.80;54.13;100694.34;4938345;23;124644;-70
2021/05/06 01:49:02;;;;;;;9.82;7.03;;;;;;;9.77;54.44;100698.91;4910844;28;118340;-68
2021/05/06 01:59:47;;;;;;;9.52;7.63;;;;;;;9.68;54.52;100700.16;4906390;28;118546;-69
2021/05/06 02:02:14;;;;;;;12.43;8.15;;;;;;;9.66;54.60;100696.72;4894062;28;124515;-69
2021/05/06 02:04:41;;;;;;;9.93;7.55;;;;;;;9.67;55.06;100698.44;4909100;28;122985;-69
2021/05/06 02:07:08;;;;;;;9.63;8.05;;;;;;;9.67;54.92;100698.44;4915291;28;119234;-69
2021/05/06 02:09:46;;;;;;;9.32;7.90;;;;;;;9.68;54.77;100702.78;4907521;28;118770;-69
2021/05/06 02:12:15;;;;;;;10.43;8.40;;;;;;;9.67;54.74;100698.44;4911534;28;123796;-70
2021/05/06 02:15:23;;;;;;;9.82;7.68;;;;;;;9.65;55.15;100695.00;4909226;28;123409;-70
2021/05/06 02:17:40;;;;;;;10.07;7.45;;;;;;;9.65;55.10;100705.59;4910868;28;119615;-69
2021/05/06 02:20:08;;;;;;;9.13;7.63;;;;;;;9.66;55.45;100702.00;4907448;28;118361;-70
2021/05/06 02:22:35;;;;;;;10.55;7.70;;;;;;;9.66;54.96;100702.00;4916306;28;124842;-69
2021/05/06 02:25:04;;;;;;;9.90;8.52;;;;;;;9.65;55.20;100705.59;4894242;28;122716;-69
2021/05/06 02:27:31;;;;;;;10.23;8.70;;;;;;;9.66;55.32;100696.72;4913794;28;120529;-69
2021/05/06 02:29:58;;;;;;;11.57;8.52;;;;;;;9.65;55.00;100690.56;4907997;28;119969;-69
2021/05/06 02:32:28;;;;;;;9.38;8.20;;;;;;;9.67;55.27;100698.44;4912932;28;125820;-69
2021/05/06 02:34:56;;;;;;;10.15;8.55;;;;;;;9.67;55.29;100694.00;4919518;28;123191;-69
2021/05/06 02:37:22;;;;;;;10.23;8.52;;;;;;;9.69;55.19;100686.00;4901032;28;118408;-69
2021/05/06 02:39:51;;;;;;;11.07;8.82;;;;;;;9.70;55.42;100677.13;4909099;28;119155;-69
2021/05/06 02:42:17;;;;;;;9.88;8.88;;;;;;;9.72;55.60;100685.91;4907808;28;124135;-69
2021/05/06 02:44:44;;;;;;;10.82;9.07;;;;;;;9.75;55.59;100675.16;4910162;28;123622;-69
2021/05/06 02:47:11;;;;;;;11.68;9.25;;;;;;;9.76;55.69;100671.59;4910321;28;119200;-69
2021/05/06 02:49:43;;;;;;;11.30;9.57;;;;;;;9.80;55.59;100672.31;4893826;28;118825;-69
2021/05/06 02:52:20;;;;;;;12.27;8.98;;;;;;;9.81;55.46;100674.03;4909019;28;123930;-69
2021/05/06 02:54:52;;;;;;;11.35;9.70;;;;;;;9.80;55.46;100667.88;4912932;28;123913;-69
2021/05/06 03:02:56;;;;;;;12.15;10.13;;;;;;;9.80;55.63;100670.53;4909834;28;123954;-69
2021/05/06 03:05:27;;;;;;;14.60;11.05;;;;;;;9.81;55.82;100664.28;4913505;28;124095;-69
2021/05/06 03:10:50;;;;;;;14.30;10.52;;;;;;;9.84;55.64;100664.16;4910777;28;118318;-69
2021/05/06 03:23:45;;;;;;;12.10;10.82;;;;;;;9.82;55.86;100658.09;4915003;28;124385;-68
2021/05/06 03:26:13;;;;;;;14.32;11.52;;;;;;;9.81;56.01;100663.44;4910404;28;123275;-68
2021/05/06 03:28:45;;;;;;;14.73;12.00;;;;;;;9.79;56.05;100660.88;4915506;28;119619;-68
2021/05/06 03:31:23;;;;;;;17.45;13.05;;;;;;;9.78;56.13;100669.75;4892820;28;119041;-68
2021/05/06 04:15:12;;;;;;;24.40;16.70;;;;;;;9.65;56.77;100673.84;4912723;28;119643;-68
2021/05/06 04:25:52;;;;;;;24.33;18.90;;;;;;;9.58;57.00;100672.41;4922406;28;117934;-69
2021/05/06 04:36:57;;;;;;;29.13;19.50;;;;;;;9.64;57.18;100661.56;4908844;28;117999;-70
2021/05/06 04:39:34;;;;;;;25.52;18.42;;;;;;;9.64;57.45;100662.41;4910534;28;124031;-70
2021/05/06 04:55:38;;;;;;;23.07;16.17;;;;;;;9.71;57.16;100678.88;4912902;28;119407;-69
2021/05/06 05:03:53;;;;;;;18.23;15.03;;;;;;;9.73;57.44;100684.94;4908652;28;123658;-69
2021/05/06 05:06:14;;;;;;;22.38;15.45;;;;;;;9.76;57.75;100682.19;4911894;28;122036;-69
2021/05/06 05:08:49;;;;;;;22.08;16.20;;;;;;;9.77;57.64;100673.31;4911008;28;119408;-69
2021/05/06 05:27:08;;;;;;;18.42;13.05;;;;;;;9.86;57.13;100683.47;4914774;28;119054;-69
2021/05/06 05:29:35;;;;;;;18.60;13.10;;;;;;;9.88;57.47;100675.47;4894505;28;118945;-69
2021/05/06 05:32:01;;;;;;;18.63;13.13;;;;;;;9.89;56.98;100683.34;4896464;28;123872;-69
2021/05/06 05:34:35;;;;;;;16.45;13.00;;;;;;;9.88;57.25;100676.31;4895136;28;123699;-69
2021/05/06 05:37:02;;;;;;;17.52;13.23;;;;;;;9.89;57.30;100683.34;4911769;28;118768;-69
2021/05/06 05:39:39;;;;;;;18.00;13.70;;;;;;;9.89;57.61;100683.34;4910922;28;119725;-71
2021/05/06 05:42:14;;;;;;;20.48;13.85;;;;;;;9.91;57.52;100684.13;4906978;28;124564;-71
2021/05/06 05:55:20;;;;;;;18.73;13.98;;;;;;;9.96;57.40;100683.06;4909521;28;124563;-69
2021/05/06 05:57:51;;;;;;;18.33;14.57;;;;;;;9.98;57.76;100687.34;4911862;28;120317;-69
2021/05/06 06:00:21;;;;;;;21.17;13.77;;;;;;;10.03;57.51;100689.81;4908911;28;120629;-69
2021/05/06 06:02:47;;;;;;;18.58;14.40;;;;;;;10.06;57.55;100687.03;4894034;28;124120;-69
2021/05/06 06:05:14;;;;;;;18.83;14.50;;;;;;;10.10;57.80;100681.50;4910861;28;124446;-69
2021/05/06 06:07:41;;;;;;;21.65;15.52;;;;;;;10.14;57.71;100682.22;4908686;28;118870;-69
2021/05/06 06:10:07;;;;;;;22.27;16.60;;;;;;;10.21;57.84;100683.69;4913485;28;119120;-69
2021/05/06 06:12:34;;;;;;;23.83;18.08;;;;;;;10.26;57.83;100686.94;4907117;28;123806;-68
2021/05/06 06:15:05;;;;;;;26.90;19.55;;;;;;;10.29;57.78;100686.81;4910922;28;123688;-69
2021/05/06 06:17:41;;;;;;;27.83;19.73;;;;;;;10.33;57.42;100683.13;4911454;28;119567;-69
2021/05/06 06:20:12;;;;;;;28.38;20.23;;;;;;;10.38;57.37;100684.69;4890120;28;119286;-69
2021/05/06 06:22:38;;;;;;;30.50;20.42;;;;;;;10.43;57.39;100693.28;4906419;28;123523;-69
2021/05/06 06:25:05;;;;;;;29.98;20.95;;;;;;;10.48;57.50;100686.00;4896556;28;123756;-69
2021/05/06 06:27:32;;;;;;;29.00;21.30;;;;;;;10.53;57.60;100684.00;4902728;28;119144;-69
2021/05/06 06:30:00;;;;;;;30.73;21.52;;;;;;;10.58;57.85;100692.56;4899328;28;118461;-68
2021/05/06 06:32:26;;;;;;;29.17;21.25;;;;;;;10.65;57.57;100688.69;4912923;28;124088;-69
2021/05/06 06:34:53;;;;;;;28.40;20.70;;;;;;;10.73;57.43;100690.13;4926022;28;124637;-69
2021/05/06 06:37:20;;;;;;;29.85;21.60;;;;;;;10.81;57.28;100693.25;4928040;28;119848;-69
2021/05/06 06:39:48;;;;;;;30.95;21.00;;;;;;;10.88;57.32;100694.66;4933936;28;118885;-69
2021/05/06 06:42:15;;;;;;;34.17;21.45;;;;;;;10.94;57.26;100698.81;4933205;28;123919;-68
2021/05/06 06:44:43;;;;;;;25.33;19.55;;;;;;;11.00;57.50;100699.38;4899441;28;123748;-69
2021/05/06 06:47:09;;;;;;;30.95;20.20;;;;;;;11.08;57.00;100691.06;4911251;28;119183;-69
2021/05/06 06:49:40;;;;;;;25.85;19.48;;;;;;;11.11;56.91;100693.53;4910675;28;119725;-68
2021/05/06 06:52:10;;;;;;;24.08;18.02;;;;;;;11.16;56.60;100688.00;4897057;28;124370;-69
2021/05/06 06:54:37;;;;;;;25.15;18.08;;;;;;;11.19;56.30;100688.72;4897954;28;124519;-69
2021/05/06 06:57:05;;;;;;;20.27;16.98;;;;;;;11.21;56.22;100686.84;4893280;28;118232;-68
2021/05/06 06:59:32;;;;;;;20.60;15.52;;;;;;;11.25;56.60;100682.25;4903343;28;118224;-69
2021/05/06 07:01:58;;;;;;;20.30;14.80;;;;;;;11.30;56.48;100686.38;4900286;28;124180;-69
2021/05/06 07:04:25;;;;;;;16.08;13.57;;;;;;;11.37;56.44;100686.91;4895063;28;123223;-69
2021/05/06 07:06:52;;;;;;;15.32;12.50;;;;;;;11.46;56.14;100683.78;4924821;28;118736;-70
2021/05/06 07:09:18;;;;;;;13.75;11.32;;;;;;;11.59;56.70;100675.22;4904763;28;118106;-69
2021/05/06 07:11:45;;;;;;;15.65;11.80;;;;;;;11.74;56.68;100685.03;4927973;28;124793;-69
2021/05/06 07:14:12;;;;;;;12.98;9.90;;;;;;;11.86;56.27;100679.06;4931002;28;123826;-69
2021/05/06 07:16:39;;;;;;;13.68;10.73;;;;;;;11.95;55.79;100674.25;4902681;28;119228;-69
2021/05/06 07:19:06;;;;;;;12.18;10.25;;;;;;;12.04;55.95;100671.09;4919742;28;119448;-69
2021/05/06 07:21:33;;;;;;;13.10;9.30;;;;;;;12.17;55.85;100666.84;4903953;28;123950;-69
2021/05/06 07:24:00;;;;;;;9.63;8.38;;;;;;;12.32;55.43;100674.88;4902585;28;124118;-69
2021/05/06 07:26:31;;;;;;;11.40;9.23;;;;;;;12.45;55.46;100670.59;4890555;28;118384;-69
2021/05/06 07:28:59;;;;;;;11.13;9.55;;;;;;;12.60;55.36;100668.91;4925467;28;119004;-69
2021/05/06 07:31:28;;;;;;;11.48;9.07;;;;;;;12.76;55.14;100668.91;4921808;28;124523;-69
2021/05/06 07:33:58;;;;;;;11.55;9.75;;;;;;;12.88;55.06;100668.19;4921931;28;123831;-69
2021/05/06 07:36:27;;;;;;;11.75;8.50;;;;;;;13.04;54.56;100674.34;4919950;28;120364;-69
2021/05/06 07:39:02;;;;;;;9.82;8.07;;;;;;;13.15;53.73;100670.22;4918679;28;119979;-69
2021/05/06 07:41:31;;;;;;;10.40;8.50;;;;;;;13.20;53.38;100665.47;4921945;28;124314;-69
2021/05/06 07:44:00;;;;;;;11.02;8.85;;;;;;;13.19;53.07;100663.75;4911995;28;123058;-69
2021/05/06 07:46:30;;;;;;;10.75;8.60;;;;;;;13.22;52.84;100666.22;4906431;28;118253;-69
2021/05/06 07:49:01;;;;;;;11.60;9.40;;;;;;;13.23;52.57;100668.78;4920175;28;119831;-69
2021/05/06 07:51:31;;;;;;;12.52;9.15;;;;;;;13.25;52.41;100672.22;4901265;28;123405;-69
2021/05/06 07:54:05;;;;;;;12.95;10.48;;;;;;;13.30;52.46;100671.09;4908486;28;124131;-69
2021/05/06 07:56:36;;;;;;;12.50;9.55;;;;;;;13.32;51.92;100667.44;4903030;28;119270;-71
2021/05/06 07:59:03;;;;;;;11.60;10.23;;;;;;;13.31;51.80;100665.72;4917828;28;119189;-70
2021/05/06 08:01:30;;;;;;;14.27;10.27;;;;;;;13.31;51.69;100671.03;4906841;23;124110;-73
2021/05/06 08:03:58;;;;;;;15.88;10.35;;;;;;;13.38;52.26;100661.75;4892899;28;124153;-72
2021/05/06 08:06:24;;;;;;;15.20;11.30;;;;;;;13.52;52.04;100668.88;4898419;28;119412;-73
2021/05/06 08:08:52;;;;;;;14.75;10.82;;;;;;;13.67;52.21;100672.44;4882285;28;118094;-73
2021/05/06 08:11:19;;;;;;;13.93;10.00;;;;;;;13.78;51.24;100675.28;4881833;28;124022;-73
2021/05/06 08:13:46;;;;;;;13.52;9.00;;;;;;;13.83;50.82;100673.22;4879512;28;121706;-73
2021/05/06 08:16:13;;;;;;;12.10;9.85;;;;;;;13.89;50.83;100671.13;4879598;28;119259;-74
2021/05/06 08:18:39;;;;;;;12.77;10.63;;;;;;;13.96;50.76;100672.47;4882107;28;118637;-74
2021/05/06 08:21:07;;;;;;;12.52;10.55;;;;;;;14.00;50.30;100658.84;4877133;28;125095;-74
2021/05/06 08:23:34;;;;;;;11.95;9.63;;;;;;;14.07;50.37;100656.69;4885301;28;124150;-74
2021/05/06 08:26:01;;;;;;;13.50;10.70;;;;;;;14.15;50.35;100667.69;4897408;28;119366;-74
2021/05/06 08:28:46;;;;;;;12.65;10.02;;;;;;;14.29;50.55;100652.66;4895717;28;119314;-75
2021/05/06 08:31:13;;;;;;;12.30;10.70;;;;;;;14.41;50.63;100641.22;4879081;28;123998;-74
2021/05/06 08:33:39;;;;;;;12.23;10.48;;;;;;;14.50;49.96;100651.25;4892409;28;124180;-74
2021/05/06 08:36:06;;;;;;;13.40;11.25;;;;;;;14.54;49.49;100644.78;4880730;28;118457;-74
2021/05/06 08:38:32;;;;;;;13.00;10.80;;;;;;;14.58;49.38;100635.66;4882225;28;119139;-74
2021/05/06 08:40:59;;;;;;;11.73;10.52;;;;;;;14.59;49.12;100629.38;4888401;28;123263;-74
2021/05/06 08:43:30;;;;;;;13.57;10.40;;;;;;;14.61;48.35;100631.94;4917588;28;123162;-74
2021/05/06 08:45:58;;;;;;;13.68;12.18;;;;;;;14.65;49.23;100627.25;4890363;28;119314;-74
2021/05/06 08:48:25;;;;;;;12.65;11.20;;;;;;;14.77;48.64;100626.47;4901768;28;118579;-74
2021/05/06 08:50:54;;;;;;;12.30;10.82;;;;;;;14.84;48.38;100633.09;4898214;28;123347;-74
2021/05/06 08:53:22;;;;;;;14.98;11.02;;;;;;;14.90;48.28;100631.81;4904780;28;123645;-74
2021/05/06 08:55:53;;;;;;;13.55;12.15;;;;;;;14.95;48.27;100635.03;4889164;28;118316;-74
2021/05/06 08:58:20;;;;;;;13.20;11.80;;;;;;;15.01;48.43;100639.13;4890464;28;118663;-73
2021/05/06 09:00:48;;;;;;;17.38;11.88;;;;;;;15.09;48.25;100634.13;4883849;28;123820;-75
2021/05/06 09:03:14;;;;;;;12.43;11.10;;;;;;;15.18;47.73;100630.81;4885986;28;123888;-73
2021/05/06 09:06:14;;;;;;;14.07;11.40;;;;;;;15.19;47.29;100637.88;4895543;28;119809;-73
2021/05/06 09:08:43;;;;;;;13.70;11.57;;;;;;;15.19;47.12;100643.22;4906860;28;118288;-74
2021/05/06 09:11:10;;;;;;;13.93;12.30;;;;;;;15.15;46.78;100644.38;4895568;28;123965;-74
2021/05/06 09:13:37;;;;;;;12.70;11.25;;;;;;;15.13;46.76;100638.31;4891647;28;123966;-73
2021/05/06 09:16:04;;;;;;;11.20;10.10;;;;;;;15.12;46.55;100636.59;4890563;28;120262;-73
2021/05/06 09:18:45;;;;;;;10.10;9.05;;;;;;;15.16;46.92;100643.41;4892247;28;120201;-73
2021/05/06 09:21:24;;;;;;;8.75;7.85;;;;;;;15.20;46.40;100634.28;4885653;28;123159;-73
2021/05/06 09:24:03;;;;;;;10.57;9.02;;;;;;;15.27;46.33;100635.53;4904914;28;124268;-74
2021/05/06 09:26:30;;;;;;;11.10;9.65;;;;;;;15.33;46.11;100635.13;4886931;28;119307;-74
2021/05/06 09:28:57;;;;;;;11.77;10.57;;;;;;;15.42;45.91;100638.13;4884576;28;118644;-74
2021/05/06 09:31:24;;;;;;;12.35;11.05;;;;;;;15.45;45.44;100632.59;4886939;28;124108;-74
2021/05/06 09:33:51;;;;;;;12.25;10.57;;;;;;;15.44;45.93;100629.03;4886003;28;122922;-75
2021/05/06 09:36:25;;;;;;;11.77;10.07;;;;;;;15.47;45.61;100630.66;4908554;28;120008;-74
2021/05/06 09:38:55;;;;;;;11.00;9.90;;;;;;;15.51;45.69;100624.16;4896303;28;119402;-74
2021/05/06 09:41:23;;;;;;;9.25;8.25;;;;;;;15.55;45.37;100631.81;4887595;28;123676;-75
2021/05/06 09:43:51;;;;;;;9.30;8.40;;;;;;;15.57;45.02;100631.72;4903366;28;124377;-74
2021/05/06 09:46:43;;;;;;;9.80;8.80;;;;;;;15.56;44.86;100630.03;4899567;28;119118;-74
2021/05/06 09:49:12;;;;;;;10.60;8.88;;;;;;;15.55;44.83;100622.97;4892696;28;119193;-74
2021/05/06 09:51:50;;;;;;;10.98;9.48;;;;;;;15.52;44.72;100617.84;4883617;28;122890;-74
2021/05/06 09:54:22;;;;;;;10.80;8.98;;;;;;;15.54;45.12;100626.63;4892517;28;124310;-75
2021/05/06 09:57:09;;;;;;;10.05;8.70;;;;;;;15.61;45.01;100622.53;4895143;28;119506;-76
2021/05/06 09:59:38;;;;;;;9.45;8.55;;;;;;;15.71;45.05;100615.59;4910790;28;118028;-76
2021/05/06 10:02:10;;;;;;;8.70;7.32;;;;;;;15.81;44.56;100606.97;4881593;28;123342;-73
2021/05/06 10:04:40;;;;;;;8.05;7.25;;;;;;;15.89;44.67;100609.94;4883850;28;123288;-75
2021/05/06 10:07:08;;;;;;;9.18;7.55;;;;;;;16.01;44.32;100609.09;4881515;28;120910;-74
2021/05/06 10:10:05;;;;;;;9.57;7.43;;;;;;;16.10;44.31;100603.06;4882377;28;118960;-73
2021/05/06 10:12:37;;;;;;;8.35;6.80;;;;;;;16.22;44.10;100600.47;4893408;28;124068;-73
2021/05/06 10:15:09;;;;;;;7.60;6.80;;;;;;;16.30;43.65;100590.09;4885572;28;123940;-73
2021/05/06 10:17:39;;;;;;;7.93;7.13;;;;;;;16.36;43.26;100592.31;4881277;28;119228;-74
2021/05/06 10:20:07;;;;;;;8.20;7.30;;;;;;;16.38;42.98;100594.88;4889587;28;118923;-75
2021/05/06 10:22:34;;;;;;;8.25;7.15;;;;;;;16.39;42.82;100592.09;4898464;28;123788;-75
2021/05/06 10:25:04;;;;;;;8.35;7.25;;;;;;;16.40;42.65;100591.09;4900189;28;123508;-75
2021/05/06 10:27:31;;;;;;;11.85;6.95;;;;;;;16.40;42.85;100588.44;4896402;28;118607;-75
2021/05/06 10:29:58;;;;;;;7.22;6.53;;;;;;;16.39;42.14;100581.41;4890907;28;118812;-75
2021/05/06 10:32:30;;;;;;;7.55;6.13;;;;;;;16.33;41.96;100576.47;4896198;28;123597;-75
2021/05/06 10:35:02;;;;;;;7.70;6.00;;;;;;;16.26;41.72;100580.59;4891627;28;122853;-75
2021/05/06 10:37:38;;;;;;;5.75;4.95;;;;;;;16.15;41.29;100579.53;4877786;28;118384;-75
2021/05/06 10:40:25;;;;;;;5.90;4.82;;;;;;;16.10;41.76;100581.69;4884199;28;118941;-75
2021/05/06 10:42:53;;;;;;;7.38;5.32;;;;;;;16.10;41.75;100567.47;4884688;28;125311;-75
2021/05/06 10:45:21;;;;;;;6.30;5.03;;;;;;;16.13;41.96;100565.44;4881672;28;124572;-75
2021/05/06 10:47:57;;;;;;;5.63;4.80;;;;;;;16.25;41.97;100562.84;4886621;28;118590;-75
2021/05/06 10:50:35;;;;;;;7.75;4.85;;;;;;;16.38;41.49;100563.63;4872446;28;118814;-75
2021/05/06 10:53:05;;;;;;;6.28;4.78;;;;;;;16.52;41.29;100563.47;4881036;28;123313;-75
2021/05/06 10:55:50;;;;;;;6.50;5.18;;;;;;;16.62;40.73;100554.78;4876815;28;125066;-75
2021/05/06 10:58:26;;;;;;;7.13;4.60;;;;;;;16.70;40.70;100557.72;4889327;28;120192;-75
2021/05/06 11:01:02;;;;;;;6.03;4.63;;;;;;;16.74;39.82;100551.16;4880456;28;118822;-75
2021/05/06 11:03:30;;;;;;;6.95;4.88;;;;;;;16.78;40.15;100544.59;4864507;28;122660;-76
2021/05/06 11:05:58;;;;;;;6.97;5.00;;;;;;;16.86;40.31;100546.75;4878104;28;124461;-75
2021/05/06 11:08:29;;;;;;;5.78;4.50;;;;;;;16.89;40.01;100539.31;4874757;28;119947;-75
2021/05/06 11:10:55;;;;;;;6.28;4.78;;;;;;;16.92;39.80;100541.78;4896540;28;119115;-76
2021/05/06 11:13:28;;;;;;;7.57;5.30;;;;;;;16.95;39.39;100545.19;4879504;28;124281;-75
2021/05/06 11:16:17;;;;;;;8.20;5.07;;;;;;;17.00;39.82;100543.00;4892306;28;124093;-76
2021/05/06 11:18:46;;;;;;;6.45;4.53;;;;;;;17.09;39.84;100536.94;4885993;28;119564;-76
2021/05/06 11:21:34;;;;;;;5.22;4.70;;;;;;;17.20;39.88;100520.06;4897661;28;118960;-77
2021/05/06 11:24:19;;;;;;;5.63;4.22;;;;;;;17.28;39.66;100521.16;4898415;28;124909;-76
2021/05/06 11:27:08;;;;;;;4.75;4.00;;;;;;;17.41;39.47;100520.19;4874450;28;123737;-75
2021/05/06 11:29:39;;;;;;;5.15;4.28;;;;;;;17.53;38.53;100521.88;4895820;28;119365;-75
2021/05/06 11:32:20;;;;;;;6.82;4.07;;;;;;;17.64;38.41;100511.16;4887346;28;119444;-76
2021/05/06 11:34:52;;;;;;;5.03;4.30;;;;;;;17.73;37.99;100509.59;4895393;28;123071;-76
2021/05/06 11:37:22;;;;;;;6.13;5.18;;;;;;;17.77;38.09;100504.84;4886840;28;123876;-76
2021/05/06 11:39:55;;;;;;;6.20;4.80;;;;;;;17.77;37.75;100504.84;4877008;28;119008;-75
2021/05/06 11:42:23;;;;;;;4.55;4.13;;;;;;;17.75;37.15;100498.75;4876812;28;118553;-76
2021/05/06 11:45:22;;;;;;;4.95;4.45;;;;;;;17.68;37.75;100501.06;4885857;28;124096;-74
2021/05/06 11:47:50;;;;;;;4.95;4.25;;;;;;;17.65;37.58;100495.94;4884475;28;123969;-75
2021/05/06 11:50:22;;;;;;;6.03;4.10;;;;;;;17.60;37.61;100504.38;4884254;28;120081;-74
2021/05/06 11:52:50;;;;;;;5.00;4.28;;;;;;;17.57;37.34;100488.53;4882898;28;121305;-74
2021/05/06 11:55:27;;;;;;;7.65;3.97;;;;;;;17.55;37.71;100486.97;4879241;28;123561;-76
2021/05/06 11:57:54;;;;;;;3.53;2.75;;;;;;;17.58;37.40;100490.25;4877766;28;123541;-75
2021/05/06 12:00:25;;;;;;;4.63;2.13;;;;;;;17.58;36.92;100479.53;4896146;28;118490;-75
2021/05/06 12:03:04;;;;;;;3.03;2.47;;;;;;;17.57;37.01;100488.53;4879114;28;118171;-76
2021/05/06 12:05:59;;;;;;;3.65;2.80;;;;;;;17.58;37.34;100479.53;4887212;28;123998;-74
2021/05/06 12:08:32;;;;;;;4.45;2.83;;;;;;;17.64;37.06;100479.03;4900638;28;124288;-76
2021/05/06 12:11:03;;;;;;;4.00;3.58;;;;;;;17.67;37.88;100473.44;4884900;28;120973;-75
2021/05/06 12:13:32;;;;;;;4.88;3.53;;;;;;;17.76;37.17;100476.34;4877135;28;117759;-75
2021/05/06 12:16:19;;;;;;;5.28;3.55;;;;;;;17.82;37.36;100465.13;4883993;28;124288;-74
2021/05/06 12:19:09;;;;;;;7.15;3.65;;;;;;;17.89;36.65;100461.00;4895937;28;123974;-75
2021/05/06 12:21:37;;;;;;;5.35;3.85;;;;;;;17.94;36.43;100464.16;4918959;28;118160;-75
2021/05/06 12:24:05;;;;;;;7.35;4.07;;;;;;;17.95;36.13;100460.50;4901685;28;117878;-75
2021/05/06 12:26:33;;;;;;;6.78;4.25;;;;;;;17.95;36.18;100459.63;4892237;28;123310;-75
2021/05/06 12:28:59;;;;;;;6.05;3.78;;;;;;;17.96;36.12;100456.84;4892899;28;124597;-74
2021/05/06 12:31:27;;;;;;;6.00;4.18;;;;;;;17.97;36.28;100447.84;4891671;28;119652;-74
2021/05/06 12:33:54;;;;;;;4.82;4.00;;;;;;;17.99;36.36;100451.25;4908840;28;119114;-74
2021/05/06 12:36:21;;;;;;;8.07;3.85;;;;;;;18.02;35.84;100445.59;4908238;28;124329;-74
2021/05/06 12:38:49;;;;;;;7.43;4.10;;;;;;;18.01;36.11;100443.94;4899223;28;123921;-74
2021/05/06 12:41:17;;;;;;;7.38;3.80;;;;;;;18.06;36.33;100443.53;4909670;28;120158;-74
2021/05/06 12:43:50;;;;;;;4.40;3.80;;;;;;;18.11;35.84;100435.97;4908676;28;119434;-75
2021/05/06 12:46:27;;;;;;;4.78;3.85;;;;;;;18.15;34.59;100428.53;4893943;28;123712;-74
2021/05/06 12:48:55;;;;;;;4.75;4.13;;;;;;;18.13;35.44;100425.13;4888933;28;124412;-74
2021/05/06 12:51:31;;;;;;;4.78;3.60;;;;;;;18.14;35.62;100426.81;4873199;28;118647;-74
2021/05/06 12:54:11;;;;;;;5.32;3.90;;;;;;;18.22;35.66;100424.34;4884906;28;119934;-75
2021/05/06 12:56:41;;;;;;;5.78;3.92;;;;;;;18.27;35.43;100416.75;4882696;28;123002;-75
2021/05/06 12:59:47;;;;;;;5.45;4.25;;;;;;;18.26;35.47;100425.78;4892257;28;122909;-74
2021/05/06 13:02:14;;;;;;;;;;;;;;;18.26;36.18;100425.78;4878292;28;120356;-74
2021/05/06 13:04:46;;;;;;;4.80;3.67;;;;;;;18.26;35.26;100420.44;4874543;28;119053;-74
2021/05/06 13:07:14;;;;;;;6.70;4.57;;;;;;;18.18;35.03;100417.56;4872268;28;124400;-74
2021/05/06 13:09:49;;;;;;;4.05;3.65;;;;;;;18.09;34.61;100416.47;4889518;28;123809;-74
2021/05/06 13:12:25;;;;;;;4.63;3.60;;;;;;;18.01;34.84;100425.16;4895507;28;118991;-75
2021/05/06 13:14:59;;;;;;;4.47;3.80;;;;;;;17.90;34.73;100426.03;4887442;28;119042;-74
2021/05/06 13:17:33;;;;;;;5.55;4.20;;;;;;;17.81;34.74;100425.94;4882716;28;123732;-74
2021/05/06 13:20:15;;;;;;;5.55;4.53;;;;;;;17.71;34.85;100421.31;4888171;28;123964;-74
2021/05/06 13:23:05;;;;;;;5.03;4.40;;;;;;;17.56;35.10;100424.41;4888110;28;118129;-74
2021/05/06 13:25:53;;;;;;;6.05;4.75;;;;;;;17.34;35.52;100417.25;4894259;28;118786;-74
2021/05/06 13:28:28;;;;;;;6.25;4.63;;;;;;;17.14;35.94;100414.34;4881406;28;124162;-74
2021/05/06 13:31:22;;;;;;;5.47;4.78;;;;;;;16.92;36.31;100418.72;4888656;28;123673;-73
2021/05/06 13:34:07;;;;;;;5.03;4.53;;;;;;;16.75;36.59;100411.13;4890492;28;120488;-75
2021/05/06 13:36:34;;;;;;;6.57;5.07;;;;;;;16.56;37.10;100417.06;4880521;28;120218;-75
2021/05/06 13:39:08;;;;;;;5.85;4.53;;;;;;;16.40;37.16;100409.34;4896892;28;124006;-74
2021/05/06 13:41:38;;;;;;;5.65;4.88;;;;;;;16.27;37.45;100400.56;4885876;28;123266;-74
2021/05/06 13:44:07;;;;;;;4.95;4.30;;;;;;;16.24;37.53;100411.50;4878259;28;118969;-75
2021/05/06 13:46:43;;;;;;;5.78;4.50;;;;;;;16.20;37.75;100392.19;4874235;28;118948;-75
2021/05/06 13:49:10;;;;;;;5.20;4.22;;;;;;;16.22;37.67;100397.38;4895435;28;124398;-74
2021/05/06 13:51:36;;;;;;;7.57;4.70;;;;;;;16.18;38.00;100393.25;4882981;28;124578;-72
2021/05/06 13:54:03;;;;;;;7.95;4.30;;;;;;;16.18;38.15;100395.91;4882243;28;119041;-73
2021/05/06 13:56:30;;;;;;;5.38;4.40;;;;;;;16.14;38.37;100390.81;4886403;28;119129;-74
2021/05/06 13:58:56;;;;;;;5.70;5.10;;;;;;;16.13;38.65;100383.75;4879659;28;124742;-72
2021/05/06 14:01:23;;;;;;;5.68;4.45;;;;;;;16.14;38.28;100385.47;4884186;28;123115;-72
2021/05/06 14:03:50;;;;;;;5.45;4.25;;;;;;;16.15;38.52;100381.81;4884004;28;119673;-72
2021/05/06 14:06:16;;;;;;;4.85;4.22;;;;;;;16.18;38.69;100385.22;4904841;23;118524;-71
2021/05/06 14:08:43;;;;;;;5.20;4.35;;;;;;;16.21;38.33;100385.00;4901569;28;124339;-69
2021/05/06 14:11:10;;;;;;;9.57;5.57;;;;;;;16.20;38.56;100385.97;4907923;28;124057;-68
2021/05/06 14:13:48;;;;;;;8.95;5.80;;;;;;;16.18;38.71;100385.22;4901827;28;119320;-68
2021/05/06 14:16:15;;;;;;;8.07;5.80;;;;;;;16.14;38.69;100373.91;4905680;28;119194;-68
2021/05/06 14:18:42;;;;;;;7.07;6.32;;;;;;;16.11;39.03;100380.34;4878221;28;124995;-69
2021/05/06 14:21:10;;;;;;;6.28;5.57;;;;;;;16.08;38.59;100372.56;4900309;28;123932;-69
2021/05/06 14:23:41;;;;;;;8.13;6.35;;;;;;;16.01;38.73;100374.03;4895410;28;119378;-68
2021/05/06 14:26:08;;;;;;;7.63;6.05;;;;;;;15.94;38.96;100378.97;4903015;28;120520;-68
2021/05/06 14:28:34;;;;;;;8.10;6.68;;;;;;;15.92;39.34;100369.38;4884498;28;124087;-69
2021/05/06 14:31:01;;;;;;;8.57;7.43;;;;;;;15.88;39.81;100373.22;4889451;28;123883;-69
2021/05/06 14:33:28;;;;;;;9.23;7.28;;;;;;;15.85;40.27;100373.47;4900015;28;119813;-69
2021/05/06 14:35:56;;;;;;;8.85;7.22;;;;;;;15.84;40.06;100366.41;4882772;28;117997;-69
2021/05/06 14:38:22;;;;;;;8.23;7.43;;;;;;;15.76;40.07;100362.50;4886288;28;124517;-69
2021/05/06 14:40:49;;;;;;;10.45;7.57;;;;;;;15.67;40.65;100365.84;4901452;28;123973;-68